createdAt,value
2023-03-01T00:01:31.965Z,9.13
2023-03-01T00:04:00.179Z,8.10
2023-03-01T00:06:28.971Z,8.37
2023-03-01T00:08:56.584Z,8.33
2023-03-01T00:11:32.116Z,8.60
2023-03-01T00:14:02.144Z,8.70
2023-03-01T00:16:33.045Z,8.67
2023-03-01T00:19:01.080Z,9.03
2023-03-01T00:21:28.959Z,8.57
2023-03-01T00:23:57.511Z,8.13
2023-03-01T00:26:26.313Z,8.03
2023-03-01T00:28:54.344Z,8.37
2023-03-01T00:31:24.945Z,8.20
2023-03-01T00:34:00.499Z,8.20
2023-03-01T00:36:31.701Z,8.87
2023-03-01T00:38:59.569Z,7.90
2023-03-01T00:41:29.898Z,8.40
2023-03-01T00:43:57.686Z,8.10
2023-03-01T00:46:27.588Z,8.20
2023-03-01T00:48:55.831Z,8.57
2023-03-01T00:51:26.679Z,8.63
2023-03-01T00:53:56.363Z,8.70
2023-03-01T00:56:24.391Z,8.57
2023-03-01T00:58:52.108Z,8.37
2023-03-01T01:01:22.994Z,8.17
2023-03-01T01:03:56.519Z,8.53
2023-03-01T01:06:26.831Z,8.37
2023-03-01T01:08:55.426Z,8.60
2023-03-01T01:11:24.914Z,8.63
2023-03-01T01:13:52.713Z,8.17
2023-03-01T01:16:21.349Z,8.33
2023-03-01T01:18:48.686Z,8.43
2023-03-01T01:21:19.963Z,7.87
2023-03-01T01:23:48.001Z,8.30
2023-03-01T01:26:22.281Z,7.80
2023-03-01T01:28:51.025Z,7.97
2023-03-01T01:31:19.749Z,8.00
2023-03-01T01:33:47.195Z,8.17
2023-03-01T01:36:14.721Z,7.93
2023-03-01T01:38:43.547Z,7.73
2023-03-01T01:41:13.026Z,8.03
2023-03-01T01:43:49.732Z,8.03
2023-03-01T01:46:33.701Z,7.77
2023-03-01T01:49:06.753Z,8.50
2023-03-01T01:51:39.954Z,8.07
2023-03-01T01:54:38.559Z,8.13
2023-03-01T01:57:11.834Z,7.67
2023-03-01T01:59:43.080Z,8.53
2023-03-01T02:02:10.818Z,8.13
2023-03-01T02:04:38.363Z,8.43
2023-03-01T02:07:18.024Z,8.43
2023-03-01T02:09:49.668Z,8.40
2023-03-01T02:12:20.752Z,7.93
2023-03-01T02:14:48.124Z,7.57
2023-03-01T02:17:18.081Z,7.60
2023-03-01T02:20:08.228Z,7.60
2023-03-01T02:22:39.268Z,8.10
2023-03-01T02:25:06.693Z,8.07
2023-03-01T02:27:58.973Z,8.23
2023-03-01T02:30:26.872Z,8.10
2023-03-01T02:33:04.094Z,8.43
2023-03-01T02:35:39.998Z,8.57
2023-03-01T02:38:10.000Z,8.30
2023-03-01T02:40:40.449Z,8.63
2023-03-01T02:43:11.317Z,8.17
2023-03-01T02:45:50.150Z,7.67
2023-03-01T02:48:18.385Z,8.03
2023-03-01T02:50:54.909Z,8.17
2023-03-01T02:53:36.305Z,7.90
2023-03-01T02:56:03.735Z,8.20
2023-03-01T02:58:31.122Z,8.13
2023-03-01T03:00:58.715Z,8.73
2023-03-01T03:03:27.162Z,7.57
2023-03-01T03:05:54.546Z,8.43
2023-03-01T03:08:25.434Z,8.10
2023-03-01T03:10:54.227Z,7.63
2023-03-01T03:13:23.197Z,8.37
2023-03-01T03:15:51.297Z,8.50
2023-03-01T03:18:19.896Z,8.13
2023-03-01T03:20:47.524Z,8.43
2023-03-01T03:23:15.159Z,7.83
2023-03-01T03:25:42.577Z,8.57
2023-03-01T03:28:12.430Z,8.30
2023-03-01T03:30:42.353Z,8.00
2023-03-01T03:33:13.273Z,8.20
2023-03-01T03:35:46.780Z,8.23
2023-03-01T03:38:18.636Z,8.10
2023-03-01T03:40:51.824Z,8.07
2023-03-01T03:43:24.145Z,8.07
2023-03-01T03:45:53.232Z,8.50
2023-03-01T03:48:21.048Z,8.30
2023-03-01T03:50:54.654Z,8.30
2023-03-01T03:53:23.478Z,8.23
2023-03-01T03:55:50.930Z,8.17
2023-03-01T03:58:21.025Z,8.10
2023-03-01T04:00:50.718Z,8.07
2023-03-01T04:03:20.010Z,8.37
2023-03-01T04:05:48.437Z,8.33
2023-03-01T04:08:15.809Z,8.13
2023-03-01T04:10:49.009Z,8.63
2023-03-01T04:13:20.934Z,8.37
2023-03-01T04:15:53.356Z,7.63
2023-03-01T04:18:23.854Z,8.10
2023-03-01T04:20:53.374Z,7.77
2023-03-01T04:23:22.165Z,7.97
2023-03-01T04:26:00.548Z,8.27
2023-03-01T04:28:41.576Z,8.07
2023-03-01T04:31:15.089Z,7.97
2023-03-01T04:33:52.551Z,8.30
2023-03-01T04:36:21.816Z,7.47
2023-03-01T04:42:51.587Z,7.77
2023-03-01T04:45:19.361Z,8.13
2023-03-01T04:47:48.101Z,8.33
2023-03-01T04:50:18.309Z,8.30
2023-03-01T04:52:45.879Z,8.43
2023-03-01T04:55:13.578Z,7.77
2023-03-01T04:57:41.462Z,7.60
2023-03-01T05:00:21.346Z,8.10
2023-03-01T05:02:54.457Z,8.80
2023-03-01T05:05:26.791Z,8.10
2023-03-01T05:07:59.499Z,8.00
2023-03-01T05:10:30.281Z,8.30
2023-03-01T05:12:59.231Z,8.13
2023-03-01T05:15:32.270Z,8.37
2023-03-01T05:18:01.746Z,7.93
2023-03-01T05:20:31.083Z,8.67
2023-03-01T05:23:00.801Z,8.40
2023-03-01T05:25:34.266Z,7.93
2023-03-01T05:28:07.427Z,8.20
2023-03-01T05:30:35.974Z,8.60
2023-03-01T05:33:03.738Z,7.77
2023-03-01T05:35:33.827Z,8.20
2023-03-01T05:38:01.331Z,8.13
2023-03-01T05:40:28.719Z,8.03
2023-03-01T05:42:57.798Z,8.40
2023-03-01T05:45:27.472Z,8.30
2023-03-01T05:47:56.233Z,7.30
2023-03-01T05:50:27.184Z,8.33
2023-03-01T05:53:01.005Z,8.33
2023-03-01T05:55:29.789Z,8.27
2023-03-01T05:57:59.974Z,8.80
2023-03-01T06:00:29.669Z,8.90
2023-03-01T06:02:58.292Z,8.57
2023-03-01T06:05:26.696Z,8.63
2023-03-01T06:07:54.235Z,8.10
2023-03-01T06:10:23.304Z,8.40
2023-03-01T06:12:50.737Z,8.33
2023-03-01T06:15:18.552Z,8.37
2023-03-01T06:17:47.737Z,8.67
2023-03-01T06:20:16.702Z,9.00
2023-03-01T06:22:45.215Z,8.80
2023-03-01T06:25:14.227Z,8.33
2023-03-01T06:27:42.327Z,8.50
2023-03-01T06:30:13.243Z,9.30
2023-03-01T06:32:43.918Z,9.10
2023-03-01T06:35:13.497Z,9.30
2023-03-01T06:37:41.867Z,9.30
2023-03-01T06:40:13.170Z,9.70
2023-03-01T06:42:42.580Z,9.10
2023-03-01T06:45:10.971Z,8.60
2023-03-01T06:47:38.557Z,10.10
2023-03-01T06:50:06.468Z,9.77
2023-03-01T06:52:33.912Z,9.27
2023-03-01T06:55:01.640Z,9.10
2023-03-01T06:57:29.303Z,8.60
2023-03-01T06:59:57.275Z,9.63
2023-03-01T07:02:25.091Z,8.83
2023-03-01T07:04:53.156Z,9.27
2023-03-01T07:07:21.218Z,10.13
2023-03-01T07:09:50.410Z,9.70
2023-03-01T07:12:18.015Z,8.97
2023-03-01T07:14:45.615Z,9.27
2023-03-01T07:17:13.028Z,10.13
2023-03-01T07:19:40.636Z,8.70
2023-03-01T07:22:09.094Z,9.17
2023-03-01T07:24:36.492Z,9.80
2023-03-01T07:27:04.212Z,10.60
2023-03-01T07:29:31.800Z,9.53
2023-03-01T07:31:59.678Z,9.37
2023-03-01T07:34:27.187Z,9.93
2023-03-01T07:36:54.629Z,9.93
2023-03-01T07:39:24.137Z,10.13
2023-03-01T07:41:52.419Z,10.47
2023-03-01T07:44:23.107Z,10.03
2023-03-01T07:46:50.456Z,9.90
2023-03-01T07:49:17.882Z,9.73
2023-03-01T07:51:45.238Z,10.37
2023-03-01T07:54:12.632Z,10.27
2023-03-01T07:56:40.067Z,10.97
2023-03-01T07:59:07.394Z,10.80
2023-03-01T08:01:34.870Z,10.30
2023-03-01T08:04:02.937Z,10.80
2023-03-01T08:06:30.571Z,9.63
2023-03-01T08:08:59.524Z,11.40
2023-03-01T08:11:29.369Z,10.93
2023-03-01T08:13:57.618Z,11.97
2023-03-01T08:16:25.538Z,11.13
2023-03-01T08:18:53.006Z,11.80
2023-03-01T08:21:20.483Z,11.07
2023-03-01T08:23:47.928Z,11.57
2023-03-01T08:26:18.294Z,12.93
2023-03-01T08:28:46.420Z,11.90
2023-03-01T08:31:30.986Z,11.57
2023-03-01T08:34:01.372Z,11.47
2023-03-01T08:36:34.658Z,12.10
2023-03-01T08:39:02.994Z,11.70
2023-03-01T08:41:30.826Z,11.70
2023-03-01T08:44:01.216Z,12.13
2023-03-01T08:46:31.198Z,11.93
2023-03-01T08:48:58.943Z,10.87
2023-03-01T08:51:27.041Z,12.30
2023-03-01T08:53:55.240Z,11.70
2023-03-01T08:56:22.790Z,12.03
2023-03-01T08:58:50.544Z,11.87
2023-03-01T09:01:19.905Z,11.60
2023-03-01T09:03:47.827Z,11.47
2023-03-01T09:06:15.937Z,11.57
2023-03-01T09:08:46.970Z,12.27
2023-03-01T09:11:20.585Z,11.97
2023-03-01T09:13:49.477Z,12.00
2023-03-01T09:16:19.049Z,11.93
2023-03-01T09:18:49.960Z,11.63
2023-03-01T09:21:24.871Z,13.80
2023-03-01T09:23:59.167Z,12.73
2023-03-01T09:26:26.916Z,12.50
2023-03-01T09:28:56.523Z,12.47
2023-03-01T09:31:25.360Z,11.77
2023-03-01T09:33:55.195Z,10.77
2023-03-01T09:36:25.014Z,11.10
2023-03-01T09:38:54.032Z,11.83
2023-03-01T09:41:30.412Z,11.30
2023-03-01T09:44:05.801Z,11.70
2023-03-01T09:46:41.573Z,10.47
2023-03-01T09:49:24.982Z,11.17
2023-03-01T09:52:01.534Z,11.57
2023-03-01T09:54:29.241Z,11.73
2023-03-01T09:57:05.764Z,11.97
2023-03-01T09:59:46.134Z,11.33
2023-03-01T10:02:29.140Z,11.13
2023-03-01T10:05:14.064Z,9.27
2023-03-01T10:08:00.046Z,11.03
2023-03-01T10:10:35.734Z,10.73
2023-03-01T10:13:34.463Z,10.40
2023-03-01T10:16:15.087Z,10.17
2023-03-01T10:18:44.785Z,10.40
2023-03-01T10:21:19.053Z,10.50
2023-03-01T10:23:47.440Z,10.57
2023-03-01T10:26:45.776Z,11.20
2023-03-01T10:29:14.578Z,10.50
2023-03-01T10:31:51.426Z,11.37
2023-03-01T10:34:24.255Z,11.30
2023-03-01T10:36:54.111Z,11.17
2023-03-01T10:39:24.477Z,10.70
2023-03-01T10:42:04.715Z,10.60
2023-03-01T10:44:49.517Z,11.33
2023-03-01T10:47:29.245Z,10.50
2023-03-01T10:50:02.704Z,10.53
2023-03-01T10:52:42.009Z,10.30
2023-03-01T10:55:28.322Z,11.47
2023-03-01T10:58:17.599Z,11.10
2023-03-01T11:00:54.374Z,11.33
2023-03-01T11:03:39.922Z,11.00
2023-03-01T11:06:13.407Z,10.47
2023-03-01T11:08:46.882Z,10.40
2023-03-01T11:11:25.843Z,10.17
2023-03-01T11:14:00.797Z,10.77
2023-03-01T11:16:35.356Z,10.80
2023-03-01T11:19:11.924Z,9.47
2023-03-01T11:21:57.150Z,10.10
2023-03-01T11:24:31.578Z,9.63
2023-03-01T11:27:05.268Z,10.17
2023-03-01T11:29:48.924Z,10.13
2023-03-01T11:32:17.255Z,9.90
2023-03-01T11:34:59.459Z,9.17
2023-03-01T11:37:42.649Z,10.27
2023-03-01T11:40:27.156Z,13.30
2023-03-01T11:43:13.205Z,12.73
2023-03-01T11:45:52.748Z,16.93
2023-03-01T11:48:23.001Z,14.20
2023-03-01T11:50:50.691Z,12.53
2023-03-01T11:53:33.044Z,10.17
2023-03-01T11:56:36.084Z,10.10
2023-03-01T11:59:48.094Z,9.93
2023-03-01T12:02:47.556Z,9.90
2023-03-01T12:05:47.555Z,10.00
2023-03-01T12:08:17.735Z,9.97
2023-03-01T12:10:51.265Z,9.80
2023-03-01T12:13:33.879Z,10.73
2023-03-01T12:16:04.196Z,10.00
2023-03-01T12:19:09.014Z,10.57
2023-03-01T12:22:03.375Z,9.57
2023-03-01T12:24:47.180Z,10.27
2023-03-01T12:27:52.211Z,10.47
2023-03-01T12:30:56.945Z,10.70
2023-03-01T12:33:30.867Z,10.13
2023-03-01T12:36:19.766Z,10.90
2023-03-01T12:38:51.562Z,10.50
2023-03-01T12:41:40.102Z,10.57
2023-03-01T12:44:32.806Z,10.20
2023-03-01T12:47:18.783Z,10.87
2023-03-01T12:49:59.575Z,10.17
2023-03-01T12:52:46.308Z,10.60
2023-03-01T12:55:39.846Z,10.83
2023-03-01T12:58:43.856Z,10.33
2023-03-01T13:01:32.226Z,9.83
2023-03-01T13:04:18.256Z,9.83
2023-03-01T13:06:46.177Z,10.40
2023-03-01T13:09:19.697Z,9.83
2023-03-01T13:11:49.012Z,9.07
2023-03-01T13:14:22.519Z,9.83
2023-03-01T13:16:52.099Z,9.47
2023-03-01T13:19:24.842Z,9.37
2023-03-01T13:21:57.900Z,9.47
2023-03-01T13:24:31.310Z,8.90
2023-03-01T13:27:08.048Z,9.33
2023-03-01T13:29:52.425Z,9.17
2023-03-01T13:32:49.776Z,8.77
2023-03-01T13:35:20.127Z,9.17
2023-03-01T13:37:48.069Z,8.30
2023-03-01T13:40:21.827Z,9.33
2023-03-01T13:43:04.229Z,9.33
2023-03-01T13:45:43.530Z,9.07
2023-03-01T13:48:10.986Z,8.83
2023-03-01T13:50:46.359Z,8.80
2023-03-01T13:53:19.606Z,8.43
2023-03-01T13:55:52.221Z,8.47
2023-03-01T13:58:27.131Z,8.03
2023-03-01T14:01:06.170Z,8.67
2023-03-01T14:03:35.605Z,8.33
2023-03-01T14:06:17.774Z,8.63
2023-03-01T14:08:47.869Z,9.23
2023-03-01T14:11:41.276Z,8.97
2023-03-01T14:14:39.516Z,8.57
2023-03-01T14:17:39.315Z,8.90
2023-03-01T14:20:17.581Z,8.03
2023-03-01T14:22:46.201Z,8.20
2023-03-01T14:25:38.623Z,8.00
2023-03-01T14:28:21.104Z,9.27
2023-03-01T14:30:53.738Z,9.73
2023-03-01T14:33:37.366Z,8.90
2023-03-01T14:36:09.469Z,9.80
2023-03-01T14:38:42.127Z,9.87
2023-03-01T14:41:22.438Z,9.67
2023-03-01T14:44:02.265Z,8.73
2023-03-01T14:46:32.796Z,10.03
2023-03-01T14:49:06.373Z,9.53
2023-03-01T14:51:42.612Z,9.60
2023-03-01T14:54:25.309Z,9.97
2023-03-01T14:56:54.701Z,9.90
2023-03-01T14:59:26.001Z,9.87
2023-03-01T15:01:56.935Z,10.27
2023-03-01T15:04:25.807Z,9.47
2023-03-01T15:06:55.904Z,9.23
2023-03-01T15:09:23.983Z,9.57
2023-03-01T15:11:51.396Z,10.53
2023-03-01T15:14:47.353Z,9.77
2023-03-01T15:17:40.439Z,9.33
2023-03-01T15:20:18.007Z,9.13
2023-03-01T15:22:52.423Z,9.20
2023-03-01T15:25:26.494Z,9.27
2023-03-01T15:27:56.201Z,8.93
2023-03-01T15:30:41.586Z,9.27
2023-03-01T15:33:28.189Z,9.10
2023-03-01T15:35:58.231Z,10.03
2023-03-01T15:38:35.668Z,8.97
2023-03-01T15:41:24.064Z,9.63
2023-03-01T15:43:51.786Z,8.87
2023-03-01T15:46:35.455Z,8.50
2023-03-01T15:49:07.164Z,8.70
2023-03-01T15:51:38.877Z,8.23
2023-03-01T15:54:21.465Z,8.43
2023-03-01T15:56:49.007Z,8.77
2023-03-01T15:59:16.644Z,8.60
2023-03-01T16:01:46.090Z,9.13
2023-03-01T16:04:21.835Z,8.90
2023-03-01T16:06:55.200Z,9.50
2023-03-01T16:09:27.069Z,9.60
2023-03-01T16:11:55.687Z,9.17
2023-03-01T16:14:23.482Z,9.03
2023-03-01T16:16:51.025Z,8.83
2023-03-01T16:19:18.490Z,8.23
2023-03-01T16:21:47.954Z,8.53
2023-03-01T16:24:15.951Z,8.53
2023-03-01T16:26:43.492Z,9.13
2023-03-01T16:29:10.997Z,8.87
2023-03-01T16:31:38.561Z,8.70
2023-03-01T16:34:06.285Z,8.67
2023-03-01T16:36:34.009Z,8.83
2023-03-01T16:39:04.572Z,8.40
2023-03-01T16:41:32.588Z,9.33
2023-03-01T16:44:00.247Z,8.27
2023-03-01T16:46:29.984Z,8.93
2023-03-01T16:48:58.125Z,10.03
2023-03-01T16:51:25.749Z,9.57
2023-03-01T16:53:54.444Z,8.70
2023-03-01T16:56:22.018Z,10.03
2023-03-01T16:58:49.708Z,9.73
2023-03-01T17:01:24.581Z,10.07
2023-03-01T17:03:52.512Z,9.57
2023-03-01T17:06:23.269Z,9.57
2023-03-01T17:08:50.943Z,12.17
2023-03-01T17:11:20.486Z,10.50
2023-03-01T17:13:49.290Z,10.80
2023-03-01T17:16:19.070Z,12.30
2023-03-01T17:18:47.134Z,9.97
2023-03-01T17:21:15.017Z,10.87
2023-03-01T17:23:45.299Z,10.63
2023-03-01T17:26:13.871Z,11.03
2023-03-01T17:28:41.675Z,10.83
2023-03-01T17:31:09.331Z,11.47
2023-03-01T17:33:36.991Z,10.23
2023-03-01T17:36:05.725Z,9.43
2023-03-01T17:38:33.242Z,10.40
2023-03-01T17:41:01.756Z,10.23
2023-03-01T17:43:29.428Z,10.30
2023-03-01T17:45:57.867Z,9.83
2023-03-01T17:48:26.262Z,9.57
2023-03-01T17:50:53.763Z,11.50
2023-03-01T17:53:21.258Z,10.67
2023-03-01T17:55:54.342Z,10.33
2023-03-01T17:58:23.199Z,9.60
2023-03-01T18:00:51.093Z,11.07
2023-03-01T18:03:18.731Z,9.40
2023-03-01T18:05:46.148Z,9.53
2023-03-01T18:08:13.786Z,10.20
2023-03-01T18:10:41.700Z,10.03
2023-03-01T18:13:09.868Z,9.40
2023-03-01T18:15:37.822Z,9.90
2023-03-01T18:18:05.518Z,9.97
2023-03-01T18:20:34.498Z,9.73
2023-03-01T18:23:01.980Z,10.50
2023-03-01T18:25:29.670Z,9.87
2023-03-01T18:27:57.251Z,10.60
2023-03-01T18:30:24.762Z,11.70
2023-03-01T18:32:56.506Z,9.97
2023-03-01T18:35:25.762Z,10.47
2023-03-01T18:37:53.400Z,10.37
2023-03-01T18:40:20.946Z,9.83
2023-03-01T18:42:48.494Z,9.77
2023-03-01T18:45:18.017Z,10.33
2023-03-01T18:47:45.573Z,9.90
2023-03-01T18:50:13.210Z,10.50
2023-03-01T18:52:40.697Z,18.70
2023-03-01T18:55:08.537Z,13.40
2023-03-01T18:57:36.024Z,11.43
2023-03-01T19:00:04.928Z,11.07
2023-03-01T19:02:32.435Z,10.10
2023-03-01T19:04:59.973Z,11.20
2023-03-01T19:07:27.418Z,12.27
2023-03-01T19:09:54.921Z,12.10
2023-03-01T19:12:22.486Z,10.90
2023-03-01T19:14:51.521Z,10.73
2023-03-01T19:17:20.259Z,10.87
2023-03-01T19:19:48.346Z,11.63
2023-03-01T19:22:17.366Z,11.63
2023-03-01T19:24:44.908Z,10.80
2023-03-01T19:27:12.397Z,11.63
2023-03-01T19:29:39.851Z,10.23
2023-03-01T19:32:07.540Z,11.03
2023-03-01T19:34:35.946Z,11.30
2023-03-01T19:37:03.540Z,10.43
2023-03-01T19:39:31.060Z,11.03
2023-03-01T19:41:58.613Z,10.60
2023-03-01T19:44:26.089Z,12.87
2023-03-01T19:46:55.017Z,11.30
2023-03-01T19:49:22.383Z,10.80
2023-03-01T19:51:50.019Z,11.23
2023-03-01T19:54:21.923Z,11.53
2023-03-01T19:56:50.851Z,11.17
2023-03-01T19:59:24.561Z,11.00
2023-03-01T20:01:53.107Z,10.70
2023-03-01T20:04:20.556Z,11.63
2023-03-01T20:06:48.934Z,10.40
2023-03-01T20:09:21.982Z,10.77
2023-03-01T20:11:50.996Z,10.70
2023-03-01T20:14:19.071Z,11.00
2023-03-01T20:16:46.804Z,10.47
2023-03-01T20:19:14.473Z,11.43
2023-03-01T20:21:41.890Z,11.93
2023-03-01T20:24:09.462Z,11.57
2023-03-01T20:26:38.660Z,10.53
2023-03-01T20:29:08.103Z,10.63
2023-03-01T20:31:35.540Z,10.60
2023-03-01T20:34:04.432Z,10.80
2023-03-01T20:36:31.954Z,11.03
2023-03-01T20:38:59.410Z,10.50
2023-03-01T20:41:27.185Z,10.33
2023-03-01T20:43:57.079Z,10.47
2023-03-01T20:46:27.061Z,9.27
2023-03-01T20:48:55.001Z,10.63
2023-03-01T20:51:22.559Z,10.80
2023-03-01T20:53:50.141Z,9.90
2023-03-01T20:56:19.361Z,10.90
2023-03-01T20:59:04.541Z,10.23
2023-03-01T21:01:32.160Z,9.60
2023-03-01T21:03:59.610Z,9.43
2023-03-01T21:06:27.231Z,10.20
2023-03-01T21:08:58.236Z,10.30
2023-03-01T21:11:25.682Z,10.50
2023-03-01T21:13:54.559Z,9.93
2023-03-01T21:16:23.014Z,10.13
2023-03-01T21:18:50.635Z,10.40
2023-03-01T21:21:21.206Z,9.77
2023-03-01T21:23:49.133Z,10.50
2023-03-01T21:26:19.601Z,10.07
2023-03-01T21:28:48.545Z,9.60
2023-03-01T21:31:19.402Z,11.00
2023-03-01T21:33:52.995Z,10.37
2023-03-01T21:36:21.679Z,11.10
2023-03-01T21:38:50.326Z,10.03
2023-03-01T21:41:20.671Z,10.03
2023-03-01T21:43:50.433Z,9.80
2023-03-01T21:46:21.223Z,9.90
2023-03-01T21:48:50.549Z,10.87
2023-03-01T21:51:20.844Z,10.27
2023-03-01T21:53:48.467Z,10.17
2023-03-01T21:56:17.979Z,10.97
2023-03-01T21:58:45.738Z,10.10
2023-03-01T22:01:16.539Z,10.23
2023-03-01T22:03:46.050Z,10.73
2023-03-01T22:06:19.418Z,10.00
2023-03-01T22:08:55.947Z,9.90
2023-03-01T22:11:26.327Z,10.10
2023-03-01T22:13:55.826Z,9.50
2023-03-01T22:16:29.017Z,9.67
2023-03-01T22:18:58.468Z,9.03
2023-03-01T22:21:26.787Z,10.20
2023-03-01T22:23:55.465Z,10.07
2023-03-01T22:26:27.928Z,9.60
2023-03-01T22:28:57.702Z,9.53
2023-03-01T22:31:25.638Z,10.03
2023-03-01T22:33:54.515Z,9.03
2023-03-01T22:36:22.428Z,8.83
2023-03-01T22:38:52.439Z,9.47
2023-03-01T22:41:19.803Z,9.07
2023-03-01T22:43:47.136Z,9.10
2023-03-01T22:46:17.749Z,9.10
2023-03-01T22:48:46.803Z,9.10
2023-03-01T22:51:19.618Z,9.27
2023-03-01T22:53:47.098Z,9.50
2023-03-01T22:56:20.594Z,9.50
2023-03-01T22:58:48.297Z,9.30
2023-03-01T23:01:21.125Z,9.03
2023-03-01T23:03:49.075Z,8.20
2023-03-01T23:06:18.800Z,9.30
2023-03-01T23:08:51.005Z,8.73
2023-03-01T23:11:19.538Z,8.37
2023-03-01T23:13:47.539Z,8.70
2023-03-01T23:16:15.674Z,9.07
2023-03-01T23:18:43.332Z,8.87
2023-03-01T23:21:16.059Z,8.67
2023-03-01T23:23:43.730Z,8.97
2023-03-01T23:26:11.127Z,9.17
2023-03-01T23:28:41.261Z,8.80
2023-03-01T23:31:11.821Z,9.00
2023-03-01T23:33:39.566Z,9.30
2023-03-01T23:36:21.836Z,8.50
2023-03-01T23:38:51.062Z,8.93
2023-03-01T23:41:21.107Z,9.37
2023-03-01T23:43:54.008Z,8.50
2023-03-01T23:46:23.936Z,9.70
2023-03-01T23:48:51.739Z,8.60
2023-03-01T23:51:19.577Z,9.77
2023-03-01T23:53:57.679Z,8.90
2023-03-01T23:56:51.522Z,10.07
2023-03-01T23:59:24.098Z,8.93
